Time;durP1;ratioP1;P1;durP2;ratioP2;P2;SDS_P1;SDS_P2;PMS_P1;PMS_P2;Temp;Humidity;BMP_temperature;BMP_pressure;BME280_temperature;BME280_humidity;BME280_pressure;Samples;Min_cycle;Max_cycle;Signal;HPM_P1;HPM_P2
2023/08/04 00:00:18;;;;;;;5.72;1.35;;;16.10;99.90;;;;;;5001269;28;20055;-96
2023/08/04 00:02:45;;;;;;;3.60;1.20;;;16.10;99.90;;;;;;4984107;28;20396;-96
2023/08/04 00:05:10;;;;;;;4.13;1.23;;;16.00;99.90;;;;;;4999492;28;20061;-96
2023/08/04 00:07:37;;;;;;;4.22;1.15;;;16.00;99.90;;;;;;4999921;28;20079;-95
2023/08/04 00:10:03;;;;;;;4.10;0.90;;;16.00;99.90;;;;;;5010708;28;20049;-96
2023/08/04 00:12:30;;;;;;;4.88;1.10;;;16.00;99.90;;;;;;5000698;28;20685;-96
2023/08/04 00:14:56;;;;;;;4.75;1.23;;;16.00;99.90;;;;;;4999075;28;20073;-95
2023/08/04 00:17:22;;;;;;;3.38;1.00;;;16.00;99.90;;;;;;4981109;28;20512;-96
2023/08/04 00:19:48;;;;;;;2.45;0.80;;;16.00;99.90;;;;;;4999175;28;20038;-96
2023/08/04 00:22:13;;;;;;;5.45;0.80;;;15.90;99.90;;;;;;4983514;28;20095;-96
2023/08/04 00:24:39;;;;;;;3.83;1.10;;;16.00;99.90;;;;;;4982215;28;20129;-96
2023/08/04 00:27:05;;;;;;;3.53;1.20;;;15.90;99.90;;;;;;4993821;28;20519;-96
2023/08/04 00:29:31;;;;;;;3.90;1.10;;;16.00;99.90;;;;;;4968603;28;20050;-96
2023/08/04 00:31:56;;;;;;;1.95;0.80;;;16.00;99.90;;;;;;5016125;28;20442;-96
2023/08/04 00:34:22;;;;;;;3.13;1.23;;;15.70;99.90;;;;;;4981956;28;20045;-96
2023/08/04 00:36:48;;;;;;;3.13;1.20;;;16.00;99.90;;;;;;4983498;28;20045;-96
2023/08/04 00:39:14;;;;;;;4.07;1.02;;;16.00;99.90;;;;;;4991354;28;20034;-96
2023/08/04 00:41:41;;;;;;;1.90;0.80;;;15.90;99.90;;;;;;4997993;28;20077;-96
2023/08/04 00:44:06;;;;;;;5.05;0.90;;;16.00;99.90;;;;;;4999717;28;20030;-96
2023/08/04 00:46:33;;;;;;;5.68;0.90;;;15.90;99.90;;;;;;4999794;28;20049;-96
2023/08/04 00:49:00;;;;;;;3.45;0.70;;;16.00;99.90;;;;;;4999801;28;20070;-96
2023/08/04 00:51:26;;;;;;;1.67;0.77;;;15.90;99.90;;;;;;4998925;28;20042;-96
2023/08/04 00:53:53;;;;;;;4.30;0.73;;;15.90;99.90;;;;;;5009003;28;20124;-96
2023/08/04 00:56:20;;;;;;;4.40;1.00;;;15.90;99.90;;;;;;4993637;28;20042;-96
2023/08/04 00:58:46;;;;;;;1.63;0.70;;;15.90;99.90;;;;;;5008699;28;20044;-96
2023/08/04 01:01:11;;;;;;;2.85;0.80;;;15.80;99.90;;;;;;4997210;28;20120;-96
2023/08/04 01:03:38;;;;;;;2.00;1.05;;;15.80;99.90;;;;;;4994858;28;20060;-96
2023/08/04 01:06:47;;;;;;;2.35;0.70;;;15.70;99.90;;;;;;4963848;28;20095;-96
2023/08/04 01:09:19;;;;;;;4.20;0.80;;;16.10;99.90;;;;;;4999784;28;20037;-95
2023/08/04 01:11:55;;;;;;;2.42;0.75;;;15.80;99.90;;;;;;5002647;28;20041;-96
2023/08/04 01:14:23;;;;;;;3.35;0.85;;;15.70;99.90;;;;;;4999033;28;20095;-96
2023/08/04 01:16:49;;;;;;;5.88;1.05;;;15.80;99.90;;;;;;5001466;28;20147;-96
2023/08/04 01:19:14;;;;;;;4.15;1.10;;;15.80;99.90;;;;;;4988946;28;20480;-96
2023/08/04 01:21:41;;;;;;;2.70;1.02;;;15.80;99.90;;;;;;4972606;28;20097;-96
2023/08/04 01:24:07;;;;;;;1.08;0.57;;;15.80;99.90;;;;;;4994643;28;20189;-96
2023/08/04 01:26:37;;;;;;;4.47;0.80;;;15.80;99.90;;;;;;4996570;28;20064;-96
2023/08/04 01:29:05;;;;;;;3.33;0.90;;;15.80;99.90;;;;;;4982065;28;20046;-95
2023/08/04 01:31:31;;;;;;;3.50;1.10;;;15.80;99.90;;;;;;4985174;28;20034;-96
2023/08/04 01:33:57;;;;;;;2.90;0.77;;;15.80;99.90;;;;;;4959654;28;20044;-96
2023/08/04 01:36:23;;;;;;;3.72;1.00;;;15.80;99.90;;;;;;4967967;28;20120;-96
2023/08/04 01:38:49;;;;;;;2.95;0.98;;;15.80;99.90;;;;;;4961864;28;20037;-96
2023/08/04 01:41:14;;;;;;;3.05;0.95;;;15.80;99.90;;;;;;4946507;28;20042;-96
2023/08/04 01:43:40;;;;;;;3.72;0.75;;;15.80;99.90;;;;;;4978594;28;20460;-96
2023/08/04 01:46:06;;;;;;;2.53;0.90;;;15.80;99.90;;;;;;4960519;28;20689;-96
2023/08/04 01:48:32;;;;;;;1.80;0.80;;;15.80;99.90;;;;;;4978644;28;20056;-96
2023/08/04 01:50:57;;;;;;;2.90;0.98;;;15.80;99.90;;;;;;4979122;28;20041;-96
2023/08/04 01:53:23;;;;;;;4.55;1.02;;;15.80;99.90;;;;;;4962576;28;20045;-96
2023/08/04 01:55:49;;;;;;;4.82;1.00;;;15.80;99.90;;;;;;4961440;28;20044;-95
2023/08/04 01:58:15;;;;;;;4.97;1.02;;;15.80;99.90;;;;;;4970963;28;20038;-96
2023/08/04 02:00:41;;;;;;;1.93;0.70;;;15.80;99.90;;;;;;4967493;28;20045;-95
2023/08/04 02:03:07;;;;;;;5.85;1.00;;;15.70;99.90;;;;;;4960143;28;20388;-96
2023/08/04 02:05:33;;;;;;;3.58;1.15;;;15.70;99.90;;;;;;4964740;28;20396;-95
2023/08/04 02:07:58;;;;;;;7.25;1.60;;;15.80;99.90;;;;;;4944739;28;20038;-96
2023/08/04 02:10:24;;;;;;;5.10;1.20;;;15.70;99.90;;;;;;4945888;28;20077;-95
2023/08/04 02:12:50;;;;;;;5.10;0.90;;;15.70;99.90;;;;;;4969030;28;20089;-95
2023/08/04 02:15:19;;;;;;;3.42;1.17;;;15.70;99.90;;;;;;4948522;28;20050;-95
2023/08/04 02:17:44;;;;;;;2.40;1.02;;;15.70;99.90;;;;;;4970766;28;20249;-94
2023/08/04 02:20:10;;;;;;;2.70;1.10;;;15.70;99.90;;;;;;4944096;28;20060;-94
2023/08/04 02:22:36;;;;;;;4.10;1.02;;;15.70;99.90;;;;;;4964072;28;20038;-95
2023/08/04 02:25:02;;;;;;;5.50;1.25;;;15.70;99.90;;;;;;4962820;28;20029;-95
2023/08/04 02:27:28;;;;;;;2.47;1.08;;;15.70;99.90;;;;;;4968579;28;20065;-93
2023/08/04 02:29:53;;;;;;;3.30;0.70;;;15.70;99.90;;;;;;4957534;28;20035;-96
2023/08/04 02:32:19;;;;;;;4.60;1.00;;;15.60;99.90;;;;;;4956842;28;20100;-94
2023/08/04 02:34:45;;;;;;;3.85;1.10;;;15.60;99.90;;;;;;4960910;28;20047;-94
2023/08/04 02:37:10;;;;;;;2.28;0.68;;;15.60;99.90;;;;;;4980931;28;20053;-95
2023/08/04 02:39:36;;;;;;;3.13;0.90;;;15.60;99.90;;;;;;4954691;28;20515;-95
2023/08/04 02:42:02;;;;;;;5.75;0.98;;;15.60;99.90;;;;;;4959664;28;20057;-96
2023/08/04 02:44:28;;;;;;;2.13;0.77;;;15.60;99.90;;;;;;4942430;28;20046;-95
2023/08/04 02:46:54;;;;;;;6.35;1.38;;;15.50;99.90;;;;;;4969580;28;20034;-96
2023/08/04 02:49:19;;;;;;;3.08;1.17;;;15.60;99.90;;;;;;4953230;28;20038;-96
2023/08/04 02:51:45;;;;;;;3.78;1.00;;;15.60;99.90;;;;;;4965035;28;20177;-95
2023/08/04 02:54:11;;;;;;;3.83;1.02;;;15.60;99.90;;;;;;4963877;28;20029;-96
2023/08/04 02:56:37;;;;;;;4.18;0.77;;;15.50;99.90;;;;;;4959138;28;20034;-95
2023/08/04 02:59:02;;;;;;;3.08;0.90;;;15.40;99.90;;;;;;4986530;28;20045;-95
2023/08/04 03:01:28;;;;;;;2.28;0.90;;;15.50;99.90;;;;;;4978338;28;20503;-94
2023/08/04 03:03:54;;;;;;;2.67;0.90;;;15.50;99.90;;;;;;4977072;28;20068;-96
2023/08/04 03:06:20;;;;;;;3.80;0.90;;;15.40;99.90;;;;;;4966166;28;20042;-95
2023/08/04 03:08:45;;;;;;;2.67;1.00;;;15.40;99.90;;;;;;4964657;28;20190;-96
2023/08/04 03:11:11;;;;;;;4.80;1.17;;;15.40;99.90;;;;;;4970424;28;20045;-96
2023/08/04 03:13:38;;;;;;;3.40;1.02;;;15.40;99.90;;;;;;4985951;28;20048;-96
2023/08/04 03:16:04;;;;;;;3.33;0.88;;;15.40;99.90;;;;;;4996056;28;20041;-96
2023/08/04 03:18:30;;;;;;;1.23;0.80;;;15.30;99.90;;;;;;4970687;28;20492;-96
2023/08/04 03:20:56;;;;;;;4.55;1.30;;;15.30;99.90;;;;;;4975558;28;20046;-94
2023/08/04 03:23:23;;;;;;;3.38;1.00;;;;;;;;;;4982890;28;20050;-96
2023/08/04 03:25:49;;;;;;;4.72;0.98;;;15.30;99.90;;;;;;4981004;28;20393;-95
2023/08/04 03:28:15;;;;;;;4.30;1.00;;;15.30;99.90;;;;;;4992634;28;20038;-94
2023/08/04 03:30:41;;;;;;;2.28;0.90;;;15.30;99.90;;;;;;4980183;28;20396;-95
2023/08/04 03:33:07;;;;;;;2.75;0.93;;;15.30;99.90;;;;;;5006883;28;20044;-94
2023/08/04 03:35:33;;;;;;;1.10;1.00;;;15.40;99.90;;;;;;4971543;28;20045;-95
2023/08/04 03:37:59;;;;;;;1.73;0.90;;;15.30;99.90;;;;;;4976643;28;20049;-96
2023/08/04 03:40:24;;;;;;;3.58;1.10;;;15.30;99.90;;;;;;4982937;28;20049;-96
2023/08/04 03:42:51;;;;;;;5.40;1.00;;;15.20;99.90;;;;;;4974984;28;20082;-95
2023/08/04 03:45:16;;;;;;;3.35;1.13;;;15.30;99.90;;;;;;5003556;28;20685;-96
2023/08/04 03:47:43;;;;;;;2.35;1.00;;;15.30;99.90;;;;;;5006899;28;20041;-95
2023/08/04 03:50:09;;;;;;;4.13;1.00;;;15.20;99.90;;;;;;4970847;28;20029;-96
2023/08/04 03:52:34;;;;;;;3.50;1.02;;;15.10;99.90;;;;;;4990300;28;20105;-95
2023/08/04 03:55:00;;;;;;;4.75;1.30;;;15.10;99.90;;;;;;4986676;28;20045;-95
2023/08/04 03:57:26;;;;;;;2.28;1.00;;;15.00;99.90;;;;;;4982989;28;20107;-96
2023/08/04 03:59:53;;;;;;;3.15;1.77;;;15.00;99.90;;;;;;4986871;28;20040;-95
2023/08/04 04:02:19;;;;;;;3.47;1.13;;;15.10;99.90;;;;;;4990493;28;20045;-95
2023/08/04 04:04:45;;;;;;;3.45;0.88;;;15.00;99.90;;;;;;4976715;28;20080;-95
2023/08/04 04:07:11;;;;;;;3.05;1.60;;;15.20;99.90;;;;;;4983850;28;20081;-95
2023/08/04 04:09:36;;;;;;;3.90;1.13;;;15.10;99.90;;;;;;4996895;28;20502;-96
2023/08/04 04:12:02;;;;;;;5.03;1.25;;;15.20;99.90;;;;;;4984038;28;20128;-94
2023/08/04 04:14:28;;;;;;;2.45;1.10;;;15.00;99.90;;;;;;4983908;28;20058;-95
2023/08/04 04:16:54;;;;;;;3.40;0.93;;;14.90;99.90;;;;;;4975755;28;20037;-95
2023/08/04 04:19:20;;;;;;;1.65;0.80;;;14.80;99.90;;;;;;4981677;28;20049;-96
2023/08/04 04:21:45;;;;;;;2.00;0.80;;;14.80;99.90;;;;;;4967208;28;20041;-95
2023/08/04 04:24:11;;;;;;;2.85;0.90;;;14.40;99.90;;;;;;4963933;28;20038;-95
2023/08/04 04:26:37;;;;;;;2.08;0.88;;;14.70;99.90;;;;;;4982025;28;20041;-95
2023/08/04 04:29:03;;;;;;;1.58;1.08;;;14.70;99.90;;;;;;4957573;28;20412;-95
2023/08/04 04:31:28;;;;;;;3.15;0.85;;;14.80;99.90;;;;;;4946655;28;20184;-95
2023/08/04 04:33:54;;;;;;;3.05;1.00;;;14.70;99.90;;;;;;4961720;28;20046;-94
2023/08/04 04:36:20;;;;;;;5.30;1.00;;;14.70;99.90;;;;;;4957036;28;20049;-95
2023/08/04 04:38:45;;;;;;;1.50;0.90;;;14.80;99.90;;;;;;4954321;28;20046;-96
2023/08/04 04:41:11;;;;;;;2.00;1.10;;;14.80;99.90;;;;;;4948821;28;20038;-96
2023/08/04 04:43:37;;;;;;;2.20;1.20;;;14.70;99.90;;;;;;4951337;28;20046;-96
2023/08/04 04:46:03;;;;;;;3.33;1.15;;;14.80;99.90;;;;;;4944165;28;20038;-94
2023/08/04 04:48:29;;;;;;;2.55;1.25;;;14.70;99.90;;;;;;4967744;28;20030;-95
2023/08/04 04:50:55;;;;;;;3.40;1.23;;;14.80;99.90;;;;;;4960941;28;20049;-96
2023/08/04 04:53:21;;;;;;;1.50;1.05;;;14.80;99.90;;;;;;4971697;28;20124;-91
2023/08/04 04:55:47;;;;;;;2.78;1.08;;;14.90;99.90;;;;;;4954294;28;20504;-91
2023/08/04 04:58:12;;;;;;;3.70;1.38;;;14.80;99.90;;;;;;4979638;28;20580;-91
2023/08/04 05:00:38;;;;;;;2.67;1.10;;;14.90;99.90;;;;;;4979810;28;20042;-91
2023/08/04 05:03:06;;;;;;;1.85;1.13;;;14.90;99.90;;;;;;4963210;28;20464;-91
2023/08/04 05:05:43;;;;;;;3.42;1.05;;;15.00;99.90;;;;;;4978944;28;20082;-91
2023/08/04 05:08:09;;;;;;;2.03;1.10;;;15.00;99.90;;;;;;4961871;28;20046;-91
2023/08/04 05:10:34;;;;;;;1.30;0.93;;;15.10;99.90;;;;;;4962015;28;20123;-91
2023/08/04 05:13:00;;;;;;;1.63;0.95;;;15.10;99.90;;;;;;4961453;28;20125;-90
2023/08/04 05:15:26;;;;;;;1.63;1.00;;;15.10;99.90;;;;;;4954632;28;20038;-91
2023/08/04 05:17:52;;;;;;;1.40;1.00;;;15.20;99.90;;;;;;4945999;28;20042;-91
2023/08/04 05:20:17;;;;;;;2.22;1.20;;;15.20;99.90;;;;;;4960591;28;20037;-91
2023/08/04 05:22:43;;;;;;;3.70;1.00;;;15.30;99.90;;;;;;4946374;28;20056;-91
2023/08/04 05:25:09;;;;;;;2.83;1.00;;;15.20;99.90;;;;;;4962012;28;20099;-91
2023/08/04 05:27:35;;;;;;;2.72;0.95;;;15.30;99.90;;;;;;4961711;28;20042;-91
2023/08/04 05:30:01;;;;;;;1.85;0.95;;;15.40;99.90;;;;;;4987403;28;20042;-91
2023/08/04 05:32:29;;;;;;;1.23;0.82;;;15.40;99.90;;;;;;4963049;28;20132;-91
2023/08/04 05:34:55;;;;;;;2.67;1.00;;;15.40;99.90;;;;;;4978454;28;20433;-92
2023/08/04 05:37:21;;;;;;;1.88;0.95;;;15.50;99.90;;;;;;4963537;28;20124;-90
2023/08/04 05:39:46;;;;;;;2.78;0.77;;;15.60;99.90;;;;;;4977885;28;20046;-91
2023/08/04 05:42:12;;;;;;;2.13;1.02;;;15.60;99.90;;;;;;4962132;28;20511;-90
2023/08/04 05:44:38;;;;;;;2.53;1.00;;;15.70;99.90;;;;;;4978848;28;20042;-91
2023/08/04 05:47:04;;;;;;;1.95;0.95;;;15.70;99.90;;;;;;4961719;28;20030;-91
2023/08/04 05:49:32;;;;;;;2.58;1.13;;;15.70;99.90;;;;;;4963514;28;20042;-91
2023/08/04 05:51:59;;;;;;;3.45;1.08;;;15.80;99.90;;;;;;4975654;28;20079;-91
2023/08/04 05:54:25;;;;;;;5.00;1.17;;;15.80;99.90;;;;;;4978102;28;20042;-91
2023/08/04 05:56:50;;;;;;;4.93;2.28;;;15.80;99.90;;;;;;4961202;28;20061;-91
2023/08/04 05:59:16;;;;;;;3.67;1.70;;;15.90;99.90;;;;;;4978819;28;20042;-92
2023/08/04 06:01:42;;;;;;;2.47;1.23;;;15.90;99.90;;;;;;4962275;28;20037;-92
2023/08/04 06:04:08;;;;;;;2.40;1.10;;;15.90;99.90;;;;;;4973262;28;20128;-92
2023/08/04 06:06:33;;;;;;;3.00;1.08;;;16.00;99.90;;;;;;4960262;28;20073;-92
2023/08/04 06:08:59;;;;;;;2.33;1.10;;;16.00;99.90;;;;;;4974977;28;20267;-89
2023/08/04 06:11:25;;;;;;;2.53;1.10;;;16.10;99.90;;;;;;4976509;28;20045;-89
2023/08/04 06:13:51;;;;;;;2.25;1.08;;;16.10;99.90;;;;;;4962981;28;20049;-90
2023/08/04 06:16:16;;;;;;;4.93;1.33;;;16.20;99.90;;;;;;4961399;28;20145;-89
2023/08/04 06:18:42;;;;;;;1.40;0.75;;;16.30;99.90;;;;;;4960706;28;20060;-89
2023/08/04 06:21:08;;;;;;;2.28;1.02;;;16.10;99.90;;;;;;4955401;28;20038;-90
2023/08/04 06:23:33;;;;;;;4.20;1.15;;;16.20;99.90;;;;;;4961907;28;20061;-90
2023/08/04 06:25:59;;;;;;;3.05;1.05;;;16.10;99.90;;;;;;4960585;28;20038;-90
2023/08/04 06:28:25;;;;;;;1.67;1.02;;;16.20;99.90;;;;;;4946851;28;20042;-90
2023/08/04 06:30:51;;;;;;;1.92;0.90;;;16.20;99.90;;;;;;4989729;28;20104;-90
2023/08/04 06:33:16;;;;;;;1.90;1.17;;;16.20;99.90;;;;;;4987024;28;20298;-90
2023/08/04 06:35:44;;;;;;;2.45;1.10;;;16.20;99.90;;;;;;4975670;28;20046;-88
2023/08/04 06:38:10;;;;;;;2.58;1.00;;;16.30;99.90;;;;;;4973169;28;20046;-86
2023/08/04 06:40:36;;;;;;;6.07;1.58;;;16.40;99.90;;;;;;4991632;28;20038;-87
2023/08/04 06:43:01;;;;;;;2.38;1.15;;;16.40;99.90;;;;;;4984009;28;20038;-88
2023/08/04 06:45:28;;;;;;;3.03;1.15;;;16.30;99.90;;;;;;5003625;28;20068;-88
2023/08/04 06:47:54;;;;;;;3.08;1.10;;;16.50;99.90;;;;;;4993927;28;20034;-86
2023/08/04 06:50:20;;;;;;;4.45;1.13;;;16.50;99.90;;;;;;4984836;28;20436;-88
2023/08/04 06:52:47;;;;;;;3.88;1.20;;;16.60;99.90;;;;;;4984206;28;20069;-87
2023/08/04 06:55:13;;;;;;;2.92;0.93;;;16.60;99.90;;;;;;4975472;28;20077;-87
2023/08/04 06:57:39;;;;;;;3.13;1.25;;;16.50;99.90;;;;;;4985223;28;20088;-88
2023/08/04 07:00:05;;;;;;;3.13;1.10;;;16.50;99.90;;;;;;4984565;28;20116;-88
2023/08/04 07:02:31;;;;;;;2.92;1.02;;;16.50;99.90;;;;;;4972383;28;20043;-86
2023/08/04 07:04:57;;;;;;;2.40;0.90;;;17.00;99.90;;;;;;5007529;28;20108;-88
2023/08/04 07:07:24;;;;;;;1.85;1.02;;;16.70;99.90;;;;;;4973100;28;20129;-88
2023/08/04 07:09:49;;;;;;;2.40;1.05;;;16.70;99.90;;;;;;4992815;28;20137;-89
2023/08/04 07:12:15;;;;;;;2.95;1.17;;;16.70;99.90;;;;;;4968078;28;20046;-88
2023/08/04 07:14:41;;;;;;;2.70;1.13;;;16.80;99.90;;;;;;4978061;28;20046;-88
2023/08/04 07:17:07;;;;;;;4.90;1.40;;;16.80;99.90;;;;;;4977839;28;20109;-91
2023/08/04 07:19:32;;;;;;;5.82;1.20;;;16.90;99.90;;;;;;4973152;28;20053;-89
2023/08/04 07:21:58;;;;;;;9.45;1.48;;;17.10;99.90;;;;;;4961911;28;20039;-89
2023/08/04 07:24:27;;;;;;;5.95;1.50;;;17.20;99.90;;;;;;4960886;28;20034;-89
2023/08/04 07:26:52;;;;;;;4.07;1.08;;;17.20;99.90;;;;;;4984061;28;20511;-88
2023/08/04 07:29:18;;;;;;;5.05;1.45;;;17.20;99.90;;;;;;4977964;28;20050;-88
2023/08/04 07:31:44;;;;;;;2.88;1.17;;;17.20;99.90;;;;;;4961913;28;20042;-89
2023/08/04 07:34:09;;;;;;;10.07;1.40;;;17.10;99.90;;;;;;4975511;28;20432;-89
2023/08/04 07:36:35;;;;;;;6.47;1.20;;;17.20;99.90;;;;;;4976614;28;20045;-89
2023/08/04 07:39:01;;;;;;;5.05;1.10;;;17.10;99.90;;;;;;4979748;28;20124;-89
2023/08/04 07:41:33;;;;;;;6.55;1.60;;;17.20;99.90;;;;;;4978852;28;20034;-89
2023/08/04 07:43:58;;;;;;;3.63;1.30;;;17.10;99.90;;;;;;4978235;28;20616;-87
2023/08/04 07:46:27;;;;;;;3.63;1.33;;;17.10;99.90;;;;;;4998296;28;20041;-88
2023/08/04 07:48:53;;;;;;;3.92;1.27;;;17.10;99.90;;;;;;4997005;28;20428;-89
2023/08/04 07:51:20;;;;;;;1.40;0.60;;;17.00;99.90;;;;;;4981763;28;20600;-88
2023/08/04 07:53:46;;;;;;;4.47;1.10;;;16.90;99.90;;;;;;4997324;28;20063;-89
2023/08/04 07:56:12;;;;;;;5.40;1.30;;;16.80;99.90;;;;;;4981784;28;20081;-89
2023/08/04 07:58:38;;;;;;;6.75;1.23;;;16.80;99.90;;;;;;4986920;28;20147;-88
2023/08/04 08:01:04;;;;;;;5.00;1.25;;;16.70;99.90;;;;;;4984500;28;20635;-89
2023/08/04 08:03:33;;;;;;;4.65;1.23;;;16.60;99.90;;;;;;4963568;28;20046;-91
2023/08/04 08:06:00;;;;;;;4.70;1.25;;;16.60;99.90;;;;;;4978511;28;20064;-93
2023/08/04 08:08:31;;;;;;;12.55;1.67;;;16.50;99.90;;;;;;5013324;28;20040;-93
2023/08/04 08:10:56;;;;;;;9.23;1.65;;;16.50;99.90;;;;;;4981074;28;20072;-93
2023/08/04 08:13:22;;;;;;;7.18;1.60;;;16.50;99.90;;;;;;4984474;28;20126;-91
2023/08/04 08:15:48;;;;;;;7.65;1.63;;;16.40;99.90;;;;;;4981295;28;20044;-92
2023/08/04 08:18:14;;;;;;;4.45;1.40;;;16.50;99.90;;;;;;4977268;28;20109;-91
2023/08/04 08:20:43;;;;;;;5.10;1.20;;;16.50;99.90;;;;;;4968750;28;20512;-92
2023/08/04 08:23:10;;;;;;;2.60;1.35;;;16.60;99.90;;;;;;5011098;28;20045;-95
2023/08/04 08:25:36;;;;;;;4.85;1.40;;;16.60;99.90;;;;;;4981346;28;20049;-95
2023/08/04 08:28:03;;;;;;;7.00;1.65;;;16.60;99.90;;;;;;4979405;28;20116;-95
2023/08/04 08:30:29;;;;;;;3.20;1.20;;;16.70;99.90;;;;;;4999963;28;20198;-95
2023/08/04 08:32:55;;;;;;;2.92;1.25;;;16.80;99.90;;;;;;5009994;28;20048;-94
2023/08/04 08:35:20;;;;;;;4.88;1.30;;;16.90;99.90;;;;;;4996819;28;20044;-95
2023/08/04 08:37:46;;;;;;;2.15;1.15;;;17.10;99.90;;;;;;5002542;28;20068;-95
2023/08/04 08:40:12;;;;;;;2.70;0.90;;;17.20;99.90;;;;;;4978997;28;20052;-96
2023/08/04 08:42:38;;;;;;;3.15;1.42;;;17.50;99.90;;;;;;4995073;28;20107;-96
2023/08/04 08:45:05;;;;;;;4.30;1.25;;;17.60;99.90;;;;;;4982764;28;20100;-96
2023/08/04 08:47:36;;;;;;;3.65;1.75;;;18.10;99.90;;;;;;5002006;28;20033;-95
2023/08/04 08:50:04;;;;;;;4.75;1.33;;;18.40;99.90;;;;;;4989850;28;20065;-95
2023/08/04 08:52:31;;;;;;;4.53;1.52;;;18.10;99.90;;;;;;4984305;28;20038;-95
2023/08/04 08:54:58;;;;;;;2.83;1.20;;;17.90;99.90;;;;;;4985109;28;21699;-94
2023/08/04 08:57:26;;;;;;;6.50;1.40;;;17.60;99.90;;;;;;5004367;28;20049;-94
2023/08/04 08:59:52;;;;;;;4.15;1.40;;;17.50;99.90;;;;;;4992908;28;20480;-95
2023/08/04 09:02:17;;;;;;;5.10;1.17;;;17.40;99.90;;;;;;4981749;28;20049;-96
2023/08/04 09:04:44;;;;;;;6.20;1.40;;;17.80;99.90;;;;;;4964646;28;20559;-95
2023/08/04 09:07:09;;;;;;;4.05;0.90;;;18.10;99.90;;;;;;4977605;28;20033;-95
2023/08/04 09:09:35;;;;;;;4.88;1.00;;;18.20;99.90;;;;;;4968832;28;20060;-95
2023/08/04 09:12:02;;;;;;;3.53;1.05;;;18.00;99.90;;;;;;4983424;28;20045;-96
2023/08/04 09:14:27;;;;;;;5.97;1.30;;;17.90;99.90;;;;;;4963656;28;20578;-96
2023/08/04 09:16:53;;;;;;;1.65;0.70;;;18.30;99.90;;;;;;4969897;28;20077;-96
2023/08/04 09:19:19;;;;;;;3.72;1.08;;;18.60;99.90;;;;;;4984293;28;20044;-95
2023/08/04 09:21:45;;;;;;;3.85;1.10;;;18.80;99.90;;;;;;4970838;28;20033;-96
2023/08/04 09:24:13;;;;;;;1.88;0.60;;;19.20;99.90;;;;;;4966459;28;20125;-95
2023/08/04 09:26:46;;;;;;;2.60;0.85;;;19.30;99.90;;;;;;5000444;28;20120;-95
2023/08/04 09:29:14;;;;;;;4.95;0.98;;;19.20;99.90;;;;;;4987826;28;20050;-96
2023/08/04 09:31:42;;;;;;;3.72;1.00;;;19.10;99.90;;;;;;4999072;28;20075;-94
2023/08/04 09:34:09;;;;;;;2.17;0.80;;;18.80;99.90;;;;;;4994153;28;20041;-95
2023/08/04 09:36:42;;;;;;;;;;;18.40;99.90;;;;;;4989782;28;20095;-95
2023/08/04 09:39:09;;;;;;;2.15;1.00;;;18.10;99.90;;;;;;5005611;28;19921;-96
2023/08/04 09:41:37;;;;;;;;;;;18.00;99.90;;;;;;4980950;28;20115;-95
2023/08/04 09:44:07;;;;;;;2.88;0.80;;;17.80;99.90;;;;;;4996140;28;19932;-95
2023/08/04 09:46:39;;;;;;;2.50;1.10;;;17.80;99.90;;;;;;5004997;28;20041;-96
2023/08/04 09:49:05;;;;;;;4.22;1.10;;;17.80;99.90;;;;;;4994259;28;20079;-95
2023/08/04 09:51:39;;;;;;;3.83;1.10;;;17.90;99.90;;;;;;4979034;28;20041;-96
2023/08/04 09:54:05;;;;;;;3.15;0.88;;;18.00;99.90;;;;;;5000682;28;20087;-96
2023/08/04 09:56:33;;;;;;;3.30;1.05;;;18.10;99.90;;;;;;4991967;28;20029;-95
2023/08/04 09:58:59;;;;;;;4.05;0.95;;;17.80;99.90;;;;;;4998653;28;20037;-95
2023/08/04 10:01:25;;;;;;;3.90;0.85;;;18.50;99.90;;;;;;4999345;28;20040;-94
2023/08/04 10:03:54;;;;;;;2.83;1.10;;;18.80;99.90;;;;;;5005486;28;20052;-95
2023/08/04 10:06:20;;;;;;;3.15;0.85;;;19.10;99.90;;;;;;4982601;28;20069;-95
2023/08/04 10:08:49;;;;;;;1.63;0.60;;;19.40;99.90;;;;;;4981596;28;20072;-95
2023/08/04 10:11:15;;;;;;;3.67;1.02;;;19.50;99.90;;;;;;4981494;28;20040;-94
2023/08/04 10:13:44;;;;;;;3.67;0.70;;;19.20;99.90;;;;;;4991040;28;20045;-95
2023/08/04 10:16:15;;;;;;;3.50;0.75;;;19.00;99.90;;;;;;4997753;28;20033;-95
2023/08/04 10:19:00;;;;;;;3.40;0.80;;;18.70;99.90;;;;;;5000806;28;20104;-96
2023/08/04 10:21:36;;;;;;;3.60;1.48;;;18.70;99.90;;;;;;5004957;28;20064;-95
2023/08/04 10:24:03;;;;;;;4.03;0.85;;;18.90;99.90;;;;;;4996665;28;20045;-95
2023/08/04 10:26:33;;;;;;;3.00;0.65;;;19.00;99.90;;;;;;4994493;28;20037;-94
2023/08/04 10:29:08;;;;;;;2.88;0.50;;;19.10;99.90;;;;;;5007512;28;20050;-96
2023/08/04 10:31:51;;;;;;;1.92;0.77;;;19.30;99.90;;;;;;4985267;28;20041;-94
2023/08/04 10:34:29;;;;;;;4.03;1.00;;;19.50;99.90;;;;;;4997947;28;20057;-96
2023/08/04 10:36:55;;;;;;;1.98;0.55;;;19.30;99.90;;;;;;4997616;28;20041;-95
2023/08/04 10:39:28;;;;;;;2.55;0.70;;;19.30;99.90;;;;;;5000901;28;20114;-96
2023/08/04 10:41:55;;;;;;;2.25;0.82;;;19.40;99.90;;;;;;4982878;28;20492;-95
2023/08/04 10:44:24;;;;;;;2.55;0.68;;;19.40;99.90;;;;;;4991932;28;20090;-95
2023/08/04 10:46:50;;;;;;;3.55;0.88;;;19.10;99.90;;;;;;4981205;28;20053;-96
2023/08/04 10:49:15;;;;;;;2.95;0.77;;;18.90;99.90;;;;;;4976295;28;20030;-95
2023/08/04 10:51:45;;;;;;;2.45;0.65;;;19.00;99.90;;;;;;4989983;28;20070;-95
2023/08/04 10:54:11;;;;;;;2.95;0.60;;;18.90;99.90;;;;;;5005664;28;20139;-95
2023/08/04 10:56:38;;;;;;;1.42;0.50;;;18.90;99.90;;;;;;4992378;28;20684;-95
2023/08/04 10:59:08;;;;;;;2.05;0.55;;;18.90;99.90;;;;;;4965979;28;20045;-95
2023/08/04 11:01:34;;;;;;;2.67;0.50;;;19.00;99.90;;;;;;4984734;28;20049;-94
2023/08/04 11:04:00;;;;;;;1.58;0.57;;;19.10;99.90;;;;;;4987858;28;20056;-96
2023/08/04 11:06:26;;;;;;;1.17;0.38;;;19.20;99.90;;;;;;4966543;28;20107;-96
2023/08/04 11:08:52;;;;;;;2.20;0.40;;;19.40;99.90;;;;;;4977505;28;20525;-93
2023/08/04 11:11:18;;;;;;;1.77;0.50;;;19.40;99.90;;;;;;4975186;28;20038;-95
2023/08/04 11:13:43;;;;;;;1.45;0.60;;;19.50;99.90;;;;;;4999482;28;20080;-95
2023/08/04 11:16:09;;;;;;;2.50;0.50;;;19.70;99.90;;;;;;5001257;28;20037;-96
2023/08/04 11:18:35;;;;;;;1.90;0.43;;;19.60;99.90;;;;;;4961548;28;20128;-94
2023/08/04 11:21:02;;;;;;;3.50;0.82;;;19.70;99.90;;;;;;4981010;28;20049;-92
2023/08/04 11:23:29;;;;;;;2.83;0.73;;;19.90;99.90;;;;;;4977372;28;20101;-93
2023/08/04 11:25:57;;;;;;;4.30;0.63;;;19.80;99.90;;;;;;4995297;28;20037;-91
2023/08/04 11:28:23;;;;;;;2.20;0.50;;;19.70;99.90;;;;;;5000890;28;20496;-92
2023/08/04 11:30:49;;;;;;;2.53;0.60;;;19.80;99.90;;;;;;4999518;28;20046;-92
2023/08/04 11:33:16;;;;;;;1.63;0.47;;;20.00;99.90;;;;;;5001195;28;20049;-93
2023/08/04 11:35:44;;;;;;;2.67;0.68;;;20.00;99.90;;;;;;5001144;28;20079;-92
2023/08/04 11:38:10;;;;;;;1.17;0.75;;;20.00;99.90;;;;;;5001223;28;20515;-92
2023/08/04 11:40:37;;;;;;;2.17;0.60;;;19.80;99.90;;;;;;4988693;28;20042;-93
2023/08/04 11:43:04;;;;;;;4.75;0.90;;;19.70;99.90;;;;;;5000352;28;20076;-93
2023/08/04 11:45:31;;;;;;;2.22;0.65;;;19.80;99.90;;;;;;5011270;28;20041;-93
2023/08/04 11:47:58;;;;;;;;;;;19.70;99.90;;;;;;5010649;28;20115;-93
2023/08/04 11:50:27;;;;;;;2.47;1.00;;;19.40;99.90;;;;;;5000984;28;19923;-94
2023/08/04 11:52:53;;;;;;;3.13;0.70;;;19.20;99.90;;;;;;5009209;28;20045;-92
2023/08/04 11:55:19;;;;;;;2.65;0.80;;;19.00;99.90;;;;;;5002395;28;20128;-93
2023/08/04 11:57:53;;;;;;;5.03;1.20;;;19.10;99.90;;;;;;4968427;28;20666;-92
2023/08/04 12:00:35;;;;;;;3.28;0.90;;;19.30;99.90;;;;;;5011093;28;20052;-92
2023/08/04 12:03:02;;;;;;;2.85;0.80;;;19.50;99.90;;;;;;4978456;28;20099;-93
2023/08/04 12:05:30;;;;;;;2.60;0.80;;;19.50;99.90;;;;;;5001386;28;20588;-94
2023/08/04 12:07:57;;;;;;;5.07;0.85;;;19.50;99.90;;;;;;4979960;28;20038;-92
2023/08/04 12:10:26;;;;;;;4.20;1.00;;;19.50;99.90;;;;;;4988560;28;20073;-94
2023/08/04 12:12:52;;;;;;;5.57;1.27;;;19.50;99.90;;;;;;4984701;28;20057;-94
2023/08/04 12:15:18;;;;;;;3.55;1.00;;;19.40;99.90;;;;;;5002883;28;20137;-93
2023/08/04 12:17:44;;;;;;;3.10;0.97;;;19.30;99.90;;;;;;4998889;28;20108;-93
2023/08/04 12:20:12;;;;;;;3.95;0.95;;;19.40;99.90;;;;;;4976969;28;20046;-93
2023/08/04 12:22:40;;;;;;;2.55;0.90;;;19.20;99.90;;;;;;4995284;28;20049;-94
2023/08/04 12:25:07;;;;;;;3.55;1.02;;;19.10;99.90;;;;;;4996240;28;20440;-94
2023/08/04 12:27:33;;;;;;;0.95;0.55;;;19.20;99.90;;;;;;5000014;28;20046;-94
2023/08/04 12:29:59;;;;;;;2.25;0.70;;;19.40;99.90;;;;;;4999378;28;20045;-92
2023/08/04 12:32:25;;;;;;;2.67;0.65;;;19.40;99.90;;;;;;4967131;28;20669;-93
2023/08/04 12:34:50;;;;;;;3.25;0.90;;;19.40;99.90;;;;;;4999984;28;20137;-94
2023/08/04 12:37:16;;;;;;;2.60;0.70;;;19.40;99.90;;;;;;4999349;28;20600;-93
2023/08/04 12:39:44;;;;;;;1.83;0.85;;;19.30;99.90;;;;;;4978518;28;20598;-93
2023/08/04 12:42:10;;;;;;;2.05;0.75;;;19.30;99.90;;;;;;5001409;28;20080;-93
2023/08/04 12:44:36;;;;;;;1.65;0.52;;;19.30;99.90;;;;;;4985405;28;20073;-94